Time;durP1;ratioP1;P1;durP2;ratioP2;P2;SDS_P1;SDS_P2;PMS_P1;PMS_P2;Temp;Humidity;BMP_temperature;BMP_pressure;BME280_temperature;BME280_humidity;BME280_pressure;Samples;Min_cycle;Max_cycle;Signal;HPM_P1;HPM_P2
2023/01/18 00:01:06;;;;;;;10.80;5.07;;;;;;;-2.22;90.28;98334.47;5052524;28;20217;-80
2023/01/18 00:03:33;;;;;;;8.10;4.47;;;;;;;-2.24;90.34;98338.91;5049674;28;20222;-80
2023/01/18 00:06:01;;;;;;;7.57;5.07;;;;;;;-2.23;90.94;98339.75;5047643;28;20812;-80
2023/01/18 00:08:29;;;;;;;7.60;5.27;;;;;;;-2.24;90.66;98338.91;5046647;28;20201;-80
2023/01/18 00:11:02;;;;;;;8.53;5.43;;;;;;;-2.25;90.25;98342.44;5050274;28;20611;-79
2023/01/18 00:13:29;;;;;;;8.13;5.00;;;;;;;-2.25;90.72;98336.38;5054841;28;20244;-79
2023/01/18 00:16:03;;;;;;;7.13;4.80;;;;;;;-2.26;90.39;98340.75;5050493;28;20218;-79
2023/01/18 00:18:29;;;;;;;8.10;5.63;;;;;;;-2.28;90.67;98331.31;5053319;28;20217;-80
2023/01/18 00:21:00;;;;;;;7.00;5.57;;;;;;;-2.28;90.23;98336.53;5054439;28;20574;-80
2023/01/18 00:23:26;;;;;;;7.80;5.03;;;;;;;-2.31;90.14;98332.28;5051102;28;20237;-79
2023/01/18 00:25:52;;;;;;;7.30;5.03;;;;;;;-2.32;90.36;98335.81;5051694;28;20217;-80
2023/01/18 00:28:21;;;;;;;9.27;5.43;;;;;;;-2.35;90.61;98330.78;5049402;28;20224;-80
2023/01/18 00:30:48;;;;;;;7.83;4.87;;;;;;;-2.35;90.49;98325.56;5052463;28;20226;-80
2023/01/18 00:33:16;;;;;;;5.77;4.53;;;;;;;-2.37;90.04;98330.00;5054790;28;20232;-80
2023/01/18 00:35:42;;;;;;;9.23;5.57;;;;;;;-2.37;90.21;98329.16;5060295;28;21520;-80
2023/01/18 00:38:10;;;;;;;7.50;4.80;;;;;;;-2.39;90.43;98317.97;5056604;28;20205;-79
2023/01/18 00:40:37;;;;;;;7.53;5.13;;;;;;;-2.41;90.21;98319.78;5055319;28;20232;-80
2023/01/18 00:45:47;;;;;;;9.17;4.73;;;;;;;-2.47;89.77;98324.38;5054737;28;20209;-79
2023/01/18 00:48:15;;;;;;;9.37;5.17;;;;;;;-2.49;89.94;98330.56;5056408;28;20233;-79
2023/01/18 00:50:42;;;;;;;11.13;5.40;;;;;;;-2.52;90.14;98323.78;5056319;28;20214;-79
2023/01/18 00:53:08;;;;;;;9.53;5.03;;;;;;;-2.54;89.89;98323.00;5053652;28;20222;-78
2023/01/18 00:55:34;;;;;;;10.10;4.80;;;;;;;-2.55;89.79;98325.66;5057521;28;20670;-80
2023/01/18 00:58:01;;;;;;;5.80;4.33;;;;;;;-2.56;89.75;98329.19;5055482;28;20205;-79
2023/01/18 01:00:27;;;;;;;7.60;4.50;;;;;;;-2.58;89.72;98328.41;5059214;28;20239;-80
2023/01/18 01:02:54;;;;;;;7.60;4.43;;;;;;;-2.61;89.92;98324.19;5058953;28;20229;-79
2023/01/18 01:08:16;;;;;;;8.47;5.07;;;;;;;-2.66;90.13;98322.72;5051453;28;20283;-80
2023/01/18 01:10:43;;;;;;;6.53;4.40;;;;;;;-2.70;90.02;98319.44;5054308;28;20297;-81
2023/01/18 01:26:53;;;;;;;7.90;4.53;;;;;;;-2.91;89.52;98343.84;5055699;28;20281;-80
2023/01/18 01:29:19;;;;;;;9.20;4.87;;;;;;;-2.96;89.41;98344.06;5058967;28;20213;-80
2023/01/18 01:31:46;;;;;;;9.10;4.57;;;;;;;-3.00;89.51;98347.72;5060322;28;20201;-80
2023/01/18 01:34:13;;;;;;;8.83;5.47;;;;;;;-3.04;89.77;98356.56;5055541;28;20728;-79
2023/01/18 01:36:40;;;;;;;8.77;4.30;;;;;;;-3.08;89.63;98355.03;5057014;28;20206;-79
2023/01/18 01:39:09;;;;;;;5.83;4.00;;;;;;;-3.08;90.17;98360.25;5050942;28;20210;-79
2023/01/18 01:41:36;;;;;;;6.20;4.47;;;;;;;-3.09;90.26;98361.16;5058254;28;20211;-80
2023/01/18 01:44:23;;;;;;;8.73;4.90;;;;;;;-3.10;90.31;98359.47;5051985;28;20222;-81
2023/01/18 01:46:52;;;;;;;6.50;3.90;;;;;;;-3.11;90.21;98362.13;5054467;28;20237;-80
2023/01/18 01:49:25;;;;;;;7.50;4.10;;;;;;;-3.12;90.46;98352.63;5052227;28;20225;-80
2023/01/18 01:51:58;;;;;;;9.43;4.13;;;;;;;-3.13;90.20;98357.00;5056598;28;20202;-80
2023/01/18 01:54:29;;;;;;;6.67;4.17;;;;;;;-3.14;90.69;98357.91;5055241;28;20655;-80
2023/01/18 01:57:04;;;;;;;5.87;3.80;;;;;;;-3.16;90.46;98357.13;5047224;28;20194;-79
2023/01/18 01:59:32;;;;;;;7.53;4.40;;;;;;;-3.17;90.14;98350.22;5051617;28;20267;-81
2023/01/18 02:01:59;;;;;;;7.70;4.57;;;;;;;-3.19;90.44;98349.44;5050759;28;20582;-78
2023/01/18 02:04:25;;;;;;;6.03;3.80;;;;;;;-3.21;90.50;98357.31;5050552;28;20557;-80
2023/01/18 02:06:53;;;;;;;10.70;3.83;;;;;;;-3.22;90.39;98357.38;5047954;28;20579;-79
2023/01/18 02:09:22;;;;;;;8.93;4.37;;;;;;;-3.23;90.47;98360.94;5052970;28;20216;-79
2023/01/18 02:11:51;;;;;;;7.57;4.10;;;;;;;-3.25;90.73;98352.34;5053691;28;20555;-80
2023/01/18 02:14:20;;;;;;;5.30;3.80;;;;;;;-3.26;90.66;98353.25;5051267;28;20221;-80
2023/01/18 02:16:59;;;;;;;6.37;3.90;;;;;;;-3.28;90.42;98352.47;5045040;28;20206;-79
2023/01/18 02:19:59;;;;;;;7.87;4.50;;;;;;;-3.30;90.76;98352.53;5054752;28;20205;-79
2023/01/18 02:22:42;;;;;;;8.07;4.33;;;;;;;-3.31;90.77;98352.59;5052599;28;20237;-80
2023/01/18 02:25:28;;;;;;;6.67;4.07;;;;;;;-3.32;90.85;98356.13;5046683;28;20221;-79
2023/01/18 02:28:07;;;;;;;10.47;4.70;;;;;;;-3.32;90.76;98366.53;5049421;28;20240;-80
2023/01/18 02:30:38;;;;;;;6.80;3.90;;;;;;;-3.37;90.81;98356.31;5052456;28;20661;-80
2023/01/18 02:33:08;;;;;;;7.80;4.03;;;;;;;-3.37;90.87;98358.06;5048219;28;20217;-81
2023/01/18 02:35:47;;;;;;;9.67;4.30;;;;;;;-3.39;90.78;98359.88;5055646;28;20206;-79
2023/01/18 02:38:16;;;;;;;10.63;4.17;;;;;;;-3.40;90.81;98361.63;5048574;28;20205;-79
2023/01/18 02:40:56;;;;;;;4.90;4.03;;;;;;;-3.41;90.77;98361.75;5051010;28;20205;-80
2023/01/18 02:49:09;;;;;;;9.50;6.17;;;;;;;-3.43;91.46;98368.75;5049304;28;20228;-80
2023/01/18 02:51:36;;;;;;;14.63;6.60;;;;;;;-3.43;91.51;98364.41;5053629;28;20197;-79
2023/01/18 02:54:05;;;;;;;9.13;6.03;;;;;;;-3.42;91.57;98360.88;5050755;28;20985;-81
2023/01/18 02:56:37;;;;;;;8.40;5.33;;;;;;;-3.42;91.76;98373.06;5055827;28;20217;-80
2023/01/18 02:59:10;;;;;;;10.17;5.13;;;;;;;-3.44;91.85;98373.13;5051091;28;20205;-81
2023/01/18 03:01:40;;;;;;;11.00;4.60;;;;;;;-3.46;91.41;98381.91;5056480;28;20232;-81
2023/01/18 03:04:12;;;;;;;9.57;4.63;;;;;;;-3.51;91.46;98382.94;5053760;28;20717;-81
2023/01/18 03:06:44;;;;;;;6.00;4.23;;;;;;;-3.53;91.75;98386.50;5049180;28;20208;-80
2023/01/18 03:09:20;;;;;;;6.97;3.93;;;;;;;-3.56;91.63;98384.88;5048151;28;20226;-79
2023/01/18 03:11:56;;;;;;;8.07;3.67;;;;;;;-3.57;91.98;98383.19;5053638;28;20197;-80
2023/01/18 03:14:37;;;;;;;10.10;4.77;;;;;;;-3.59;92.01;98385.03;5051933;28;20205;-79
2023/01/18 03:17:10;;;;;;;8.93;4.03;;;;;;;-3.60;91.77;98398.09;5052214;28;20224;-80
2023/01/18 03:25:13;;;;;;;6.37;4.20;;;;;;;-3.65;92.33;98397.44;5048595;28;20214;-80
2023/01/18 03:36:04;;;;;;;9.67;3.97;;;;;;;-3.67;92.40;98397.50;5026754;28;20702;-72
2023/01/18 03:38:33;;;;;;;9.03;3.60;;;;;;;-3.66;92.68;98406.16;5027937;28;20203;-73
2023/01/18 03:41:01;;;;;;;6.10;3.63;;;;;;;-3.67;92.71;98402.72;5022310;28;20226;-73
2023/01/18 03:43:35;;;;;;;6.30;3.93;;;;;;;-3.67;92.74;98409.66;5021743;28;20199;-73
2023/01/18 03:48:30;;;;;;;10.97;3.87;;;;;;;-3.63;93.25;98416.44;5054624;22;20233;-71
2023/01/18 03:51:02;;;;;;;6.20;4.20;;;;;;;-3.62;92.81;98410.31;5027823;28;20619;-71
2023/01/18 03:53:33;;;;;;;6.00;3.67;;;;;;;-3.60;93.08;98418.91;5026467;28;20214;-71
2023/01/18 03:56:04;;;;;;;7.13;4.00;;;;;;;-3.60;93.37;98414.56;5023976;28;20218;-71
2023/01/18 03:58:35;;;;;;;6.93;3.80;;;;;;;-3.59;93.89;98405.84;5010410;28;20229;-71
2023/01/18 04:01:03;;;;;;;6.73;3.70;;;;;;;-3.56;93.47;98413.50;5010441;28;20199;-71
2023/01/18 04:03:31;;;;;;;7.27;4.03;;;;;;;-3.54;93.43;98416.03;5008748;28;20238;-71
2023/01/18 04:05:59;;;;;;;6.07;3.20;;;;;;;-3.50;93.57;98421.06;5007371;28;20218;-71
2023/01/18 04:08:25;;;;;;;6.50;3.40;;;;;;;-3.48;93.66;98426.19;5010042;28;20222;-71
2023/01/18 04:10:52;;;;;;;5.57;3.87;;;;;;;-3.47;93.68;98429.66;5008970;28;20203;-71
2023/01/18 04:13:18;;;;;;;6.57;3.70;;;;;;;-3.47;94.21;98429.66;5009488;28;20690;-71
2023/01/18 04:15:45;;;;;;;7.17;3.57;;;;;;;-3.47;94.28;98430.50;5009044;28;20416;-71
2023/01/18 04:18:11;;;;;;;8.13;3.80;;;;;;;-3.45;94.36;98440.84;5008827;28;20692;-70
2023/01/18 04:20:39;;;;;;;5.80;3.73;;;;;;;-3.47;94.27;98432.25;5008496;28;20249;-71
2023/01/18 04:23:06;;;;;;;7.47;3.80;;;;;;;-3.48;94.45;98430.56;5009996;28;20607;-72
2023/01/18 04:25:32;;;;;;;7.57;3.67;;;;;;;-3.52;94.32;98438.47;5008462;28;20207;-72
2023/01/18 04:27:58;;;;;;;7.60;3.83;;;;;;;-3.52;94.68;98437.63;5006317;28;20600;-71
2023/01/18 04:30:26;;;;;;;6.23;3.87;;;;;;;-3.53;94.41;98441.16;5009912;28;20203;-71
2023/01/18 04:32:53;;;;;;;8.30;3.80;;;;;;;-3.55;94.74;98443.81;5008760;28;20234;-71
2023/01/18 04:35:19;;;;;;;6.23;3.67;;;;;;;-3.56;94.49;98447.31;5009321;28;20214;-71
2023/01/18 04:37:52;;;;;;;7.10;4.23;;;;;;;-3.57;94.46;98445.63;5006540;28;20245;-71
2023/01/18 04:40:18;;;;;;;5.70;3.30;;;;;;;-3.58;94.54;98453.50;5007095;28;20530;-71
2023/01/18 04:42:51;;;;;;;7.60;3.73;;;;;;;-3.59;94.65;98454.44;5008918;28;20242;-71
2023/01/18 04:45:18;;;;;;;5.80;3.87;;;;;;;-3.62;94.45;98450.19;5008577;28;20203;-71
2023/01/18 04:47:45;;;;;;;9.30;4.27;;;;;;;-3.59;94.42;98459.63;5008246;28;20321;-71
2023/01/18 04:50:12;;;;;;;5.43;4.03;;;;;;;-3.62;94.48;98458.00;5008720;28;20207;-71
2023/01/18 04:52:38;;;;;;;9.67;4.30;;;;;;;-3.62;94.89;98463.19;5008458;28;20207;-71
2023/01/18 04:55:08;;;;;;;10.67;4.47;;;;;;;-3.61;94.87;98464.06;5009034;28;20207;-72
2023/01/18 04:57:34;;;;;;;5.80;3.70;;;;;;;-3.62;94.76;98463.19;5008231;28;20258;-70
2023/01/18 05:00:01;;;;;;;7.77;4.20;;;;;;;-3.63;94.75;98466.72;5008147;28;20203;-71
2023/01/18 05:02:27;;;;;;;8.27;4.17;;;;;;;-3.64;94.87;98466.78;5006055;28;20210;-72
2023/01/18 05:04:54;;;;;;;7.50;4.20;;;;;;;-3.63;94.79;98471.91;5009367;28;20785;-71
2023/01/18 05:07:24;;;;;;;8.20;4.30;;;;;;;-3.63;94.91;98471.06;5008164;28;20708;-72
2023/01/18 05:09:51;;;;;;;8.23;5.07;;;;;;;-3.64;94.86;98480.63;5007961;28;20207;-72
2023/01/18 05:12:18;;;;;;;8.10;4.00;;;;;;;-3.64;95.04;98487.59;5008877;28;20306;-71
2023/01/18 05:14:45;;;;;;;7.57;4.80;;;;;;;-3.66;94.80;98484.19;5008923;28;20218;-71
2023/01/18 05:17:11;;;;;;;8.93;4.40;;;;;;;-3.69;94.84;98492.97;5006490;28;20231;-72
2023/01/18 05:19:39;;;;;;;8.07;4.40;;;;;;;-3.70;94.70;98485.22;5007573;28;20227;-72
2023/01/18 05:22:05;;;;;;;7.00;4.10;;;;;;;-3.70;94.85;98490.41;5009182;28;20254;-71
2023/01/18 05:24:32;;;;;;;10.50;4.20;;;;;;;-3.71;94.94;98497.38;5008249;28;20677;-72
2023/01/18 05:26:59;;;;;;;7.67;3.90;;;;;;;-3.71;94.13;98499.97;5007113;28;20230;-72
2023/01/18 05:29:26;;;;;;;8.40;5.13;;;;;;;-3.73;94.83;98494.00;5007327;28;20214;-72
2023/01/18 05:31:53;;;;;;;7.27;4.20;;;;;;;-3.73;94.82;98493.13;5008411;28;20203;-72
2023/01/18 05:34:19;;;;;;;5.90;4.10;;;;;;;-3.73;94.84;98494.00;5007059;28;20211;-71
2023/01/18 05:36:46;;;;;;;10.87;4.83;;;;;;;-3.75;94.92;98494.94;5006935;28;20227;-72
2023/01/18 05:39:14;;;;;;;10.70;5.20;;;;;;;-3.74;94.93;98500.09;5006046;28;20223;-71
2023/01/18 05:41:40;;;;;;;8.50;5.50;;;;;;;-3.74;94.79;98507.91;5006935;28;20199;-72
2023/01/18 05:44:06;;;;;;;11.27;5.77;;;;;;;-3.77;94.74;98508.03;5007385;28;20214;-71
2023/01/18 05:46:34;;;;;;;12.30;5.97;;;;;;;-3.78;94.57;98514.16;5003405;28;20243;-71
2023/01/18 05:49:01;;;;;;;9.00;4.63;;;;;;;-3.80;94.57;98510.75;4999667;28;20206;-71
2023/01/18 05:51:27;;;;;;;9.63;5.50;;;;;;;-3.81;94.45;98514.28;5006058;28;20210;-72
2023/01/18 05:53:53;;;;;;;8.33;5.23;;;;;;;-3.82;94.54;98522.97;5009140;28;20211;-72
2023/01/18 05:56:20;;;;;;;8.47;4.83;;;;;;;-3.81;94.83;98516.88;5000491;28;20218;-72
2023/01/18 05:58:47;;;;;;;7.20;4.63;;;;;;;-3.81;94.65;98519.47;5004355;28;20249;-72
2023/01/18 06:01:13;;;;;;;7.33;5.07;;;;;;;-3.82;94.69;98522.97;5002913;28;20203;-72
2023/01/18 06:03:41;;;;;;;9.57;5.57;;;;;;;-3.82;94.32;98525.56;5002071;28;20629;-72
2023/01/18 06:06:07;;;;;;;10.90;4.77;;;;;;;-3.83;94.49;98521.28;4995307;28;20207;-72
2023/01/18 06:08:34;;;;;;;12.63;5.23;;;;;;;-3.84;94.48;98532.59;4999562;28;20458;-72
2023/01/18 06:11:01;;;;;;;11.00;4.83;;;;;;;-3.86;94.33;98527.44;5000846;28;20569;-73
2023/01/18 06:13:30;;;;;;;7.93;4.77;;;;;;;-3.87;94.25;98530.94;4997390;28;20213;-73
2023/01/18 06:15:58;;;;;;;9.90;4.93;;;;;;;-3.86;94.42;98537.00;5005301;28;20470;-73
2023/01/18 06:18:26;;;;;;;7.17;4.47;;;;;;;-3.87;94.22;98535.31;4995942;28;20603;-73
2023/01/18 06:20:54;;;;;;;7.77;4.53;;;;;;;-3.88;94.53;98544.84;5004218;28;20210;-73
2023/01/18 06:23:21;;;;;;;10.80;4.87;;;;;;;-3.88;94.21;98544.00;4999091;28;20210;-73
2023/01/18 06:25:47;;;;;;;9.57;5.40;;;;;;;-3.90;94.48;98558.81;5004766;28;20560;-73
2023/01/18 06:28:14;;;;;;;11.63;6.23;;;;;;;-3.92;94.39;98552.81;5005077;28;20222;-73
2023/01/18 06:30:41;;;;;;;7.93;5.00;;;;;;;-3.94;94.33;98547.69;5005981;28;20210;-74
2023/01/18 06:33:08;;;;;;;9.83;5.53;;;;;;;-3.94;94.37;98554.66;5005103;28;20448;-74
2023/01/18 06:35:35;;;;;;;10.83;5.60;;;;;;;-3.94;94.27;98560.69;5006025;28;20693;-73
2023/01/18 06:38:04;;;;;;;9.23;5.23;;;;;;;-3.93;94.21;98562.38;5005026;28;20281;-74
2023/01/18 06:40:30;;;;;;;7.60;4.90;;;;;;;-3.92;94.53;98569.28;5005130;28;20218;-73
2023/01/18 06:42:57;;;;;;;14.87;8.03;;;;;;;-3.92;94.31;98581.44;5003766;28;20211;-73
2023/01/18 06:45:24;;;;;;;16.20;8.60;;;;;;;-3.92;94.42;98579.69;5006452;28;20210;-73
2023/01/18 06:47:51;;;;;;;12.13;8.80;;;;;;;-3.92;94.55;98578.81;5003633;28;20244;-73
2023/01/18 06:50:17;;;;;;;13.77;8.70;;;;;;;-3.92;94.45;98579.69;5006074;28;20211;-73
2023/01/18 06:52:45;;;;;;;10.83;6.43;;;;;;;-3.91;94.51;98577.94;5005421;28;20697;-74
2023/01/18 06:55:14;;;;;;;12.70;5.50;;;;;;;-3.91;94.67;98583.13;5008426;28;20377;-73
2023/01/18 06:57:40;;;;;;;9.97;5.47;;;;;;;-3.92;94.69;98590.06;5005967;28;20610;-73
2023/01/18 07:00:10;;;;;;;11.07;6.47;;;;;;;-3.92;94.51;98590.06;5006633;28;20231;-72
2023/01/18 07:02:37;;;;;;;11.47;6.90;;;;;;;-3.94;94.84;98597.09;5006133;28;20210;-73
2023/01/18 07:05:04;;;;;;;9.87;6.10;;;;;;;-3.94;94.83;98599.69;5002773;28;20211;-74
2023/01/18 07:07:31;;;;;;;9.30;6.20;;;;;;;-3.93;94.89;98609.19;5006864;28;20231;-74
2023/01/18 07:09:57;;;;;;;9.53;6.33;;;;;;;-3.95;94.87;98613.63;5006333;28;20210;-74
2023/01/18 07:12:25;;;;;;;10.10;6.90;;;;;;;-3.94;94.56;98617.06;5008044;28;20287;-73
2023/01/18 07:14:52;;;;;;;12.57;7.13;;;;;;;-3.96;94.48;98618.88;5007048;28;20207;-74
2023/01/18 07:17:18;;;;;;;10.50;6.00;;;;;;;-3.97;94.75;98622.38;5007047;28;20237;-74
2023/01/18 07:19:45;;;;;;;8.70;6.07;;;;;;;-3.96;94.68;98621.47;5004636;28;20233;-74
2023/01/18 07:22:12;;;;;;;11.20;6.13;;;;;;;-3.97;94.76;98618.03;5010880;28;20218;-73
2023/01/18 07:24:38;;;;;;;11.00;5.93;;;;;;;-3.96;94.83;98634.47;5010935;28;20207;-74
2023/01/18 07:27:05;;;;;;;11.37;5.90;;;;;;;-3.96;95.01;98635.31;5010872;28;20234;-74
2023/01/18 07:29:33;;;;;;;11.60;5.93;;;;;;;-3.96;95.02;98635.31;5009900;28;20218;-73
2023/01/18 07:31:59;;;;;;;8.03;5.60;;;;;;;-3.97;94.84;98644.03;5010984;28;20213;-74
2023/01/18 07:34:26;;;;;;;10.07;6.00;;;;;;;-3.97;94.92;98644.03;5008578;28;20257;-74
2023/01/18 07:36:53;;;;;;;10.73;5.93;;;;;;;-3.97;94.80;98649.22;5005104;28;20226;-73
2023/01/18 07:39:19;;;;;;;11.33;6.23;;;;;;;-3.97;94.81;98650.97;5010418;28;20234;-73
2023/01/18 07:41:46;;;;;;;11.50;6.70;;;;;;;-3.97;94.94;98662.22;5010382;28;20226;-73
2023/01/18 07:44:12;;;;;;;13.67;6.30;;;;;;;-3.98;95.00;98657.09;5009627;28;20219;-74
2023/01/18 07:46:41;;;;;;;11.20;6.43;;;;;;;-3.99;95.01;98665.78;5010013;28;20238;-74
2023/01/18 07:49:08;;;;;;;9.80;5.40;;;;;;;-3.99;94.86;98668.38;5009703;28;20616;-74
2023/01/18 07:51:34;;;;;;;10.23;6.67;;;;;;;-4.01;94.74;98670.19;5009996;28;20222;-74
2023/01/18 07:54:01;;;;;;;7.93;5.20;;;;;;;-4.00;95.06;98682.28;5010202;28;20461;-74
2023/01/18 07:56:27;;;;;;;11.17;5.60;;;;;;;-3.99;95.21;98683.97;5009793;28;20219;-74
2023/01/18 07:58:54;;;;;;;14.13;6.57;;;;;;;-3.98;95.05;98690.88;5010075;28;20238;-74
2023/01/18 08:01:22;;;;;;;10.17;5.57;;;;;;;-3.97;95.27;98685.63;5008625;28;20297;-74
2023/01/18 08:03:52;;;;;;;11.37;6.33;;;;;;;-3.97;95.20;98692.59;5009660;28;20568;-74
2023/01/18 08:06:23;;;;;;;10.47;6.07;;;;;;;-3.97;95.37;98696.03;5008909;28;20214;-73
2023/01/18 08:08:50;;;;;;;9.07;6.00;;;;;;;-3.95;95.38;98695.97;5010963;28;20301;-74
2023/01/18 08:11:16;;;;;;;9.20;5.97;;;;;;;-3.95;95.29;98703.78;5009465;28;20684;-74
2023/01/18 08:13:43;;;;;;;10.63;5.23;;;;;;;-3.94;95.63;98697.69;5013354;28;20202;-74
2023/01/18 08:16:11;;;;;;;11.07;5.30;;;;;;;-3.93;95.57;98702.78;5013421;28;20217;-73
2023/01/18 08:18:38;;;;;;;10.33;5.77;;;;;;;-3.91;95.99;98707.94;5009316;28;20211;-74
2023/01/18 08:21:09;;;;;;;7.97;5.43;;;;;;;-3.90;95.73;98707.88;5009678;28;20500;-74
2023/01/18 08:23:36;;;;;;;12.60;5.80;;;;;;;-3.88;95.78;98705.22;5008969;28;20231;-74
2023/01/18 08:26:03;;;;;;;10.17;5.43;;;;;;;-3.85;96.14;98705.97;5011811;28;20557;-74
2023/01/18 08:28:30;;;;;;;10.10;5.80;;;;;;;-3.83;96.26;98705.06;5010821;28;20198;-73
2023/01/18 08:31:07;;;;;;;13.50;6.17;;;;;;;-3.79;96.12;98706.66;5010072;28;20234;-74
2023/01/18 08:33:37;;;;;;;7.10;5.33;;;;;;;-3.77;96.45;98705.72;5006019;28;20218;-74
2023/01/18 08:36:03;;;;;;;8.47;5.63;;;;;;;-3.74;96.45;98707.31;5004159;28;20592;-74
2023/01/18 08:38:31;;;;;;;13.43;6.27;;;;;;;-3.70;96.67;98714.13;5011946;28;20214;-71
2023/01/18 08:41:01;;;;;;;8.17;5.60;;;;;;;-3.67;96.60;98720.06;5008339;28;20195;-72
2023/01/18 08:43:27;;;;;;;10.50;5.73;;;;;;;-3.65;96.79;98715.66;5008678;28;20234;-72
2023/01/18 08:45:54;;;;;;;9.90;5.30;;;;;;;-3.61;96.61;98722.44;5009615;28;20700;-72
2023/01/18 08:48:20;;;;;;;10.57;5.70;;;;;;;-3.58;96.85;98730.13;5007899;28;20242;-72
2023/01/18 08:50:47;;;;;;;11.07;6.27;;;;;;;-3.55;97.13;98730.00;5009221;28;20207;-72
2023/01/18 08:53:13;;;;;;;12.63;6.17;;;;;;;-3.49;97.32;98739.34;5008221;28;20209;-72
2023/01/18 08:55:41;;;;;;;7.23;5.67;;;;;;;-3.46;97.14;98744.44;5009352;28;20209;-72
2023/01/18 08:58:07;;;;;;;12.30;7.33;;;;;;;-3.42;97.50;98740.00;5007594;28;20230;-72
2023/01/18 09:00:34;;;;;;;12.40;6.97;;;;;;;-3.38;97.63;98749.34;5010304;28;20238;-72
2023/01/18 09:03:01;;;;;;;11.30;6.63;;;;;;;-3.35;97.62;98750.09;5010331;28;20574;-71
2023/01/18 09:05:27;;;;;;;14.37;6.43;;;;;;;-3.30;97.77;98755.13;5009694;28;20298;-72
2023/01/18 09:07:56;;;;;;;12.23;7.17;;;;;;;-3.27;97.61;98757.63;5009049;28;20233;-71
2023/01/18 09:10:23;;;;;;;11.43;6.80;;;;;;;-3.23;97.56;98752.25;5008798;28;20691;-72
2023/01/18 09:12:51;;;;;;;14.33;7.23;;;;;;;-3.19;97.82;98759.00;5010233;28;20598;-75
2023/01/18 09:15:17;;;;;;;13.93;7.90;;;;;;;-3.12;97.79;98766.59;5009160;28;20207;-74
2023/01/18 09:17:44;;;;;;;14.73;7.57;;;;;;;-3.09;97.97;98764.75;5006545;28;20226;-75
2023/01/18 09:20:12;;;;;;;11.63;7.97;;;;;;;-3.04;98.21;98768.00;5007053;28;20333;-74
2023/01/18 09:22:39;;;;;;;14.87;7.97;;;;;;;-3.00;98.20;98764.38;5008219;28;20211;-72
2023/01/18 09:25:06;;;;;;;15.43;7.53;;;;;;;-2.94;98.52;98764.16;5007854;28;20246;-72
2023/01/18 09:27:33;;;;;;;16.20;7.27;;;;;;;-2.88;98.44;98773.47;5003635;28;20853;-71
2023/01/18 09:30:00;;;;;;;13.07;7.97;;;;;;;-2.83;98.88;98769.78;5003985;28;20207;-72
2023/01/18 09:32:27;;;;;;;14.13;8.40;;;;;;;-2.77;99.13;98770.44;5005860;28;20215;-72
2023/01/18 09:34:54;;;;;;;13.57;7.70;;;;;;;-2.72;98.65;98769.38;5010201;28;20206;-72
2023/01/18 09:37:21;;;;;;;16.77;8.00;;;;;;;-2.67;99.03;98774.38;5007744;28;20778;-70
2023/01/18 09:39:48;;;;;;;16.10;8.73;;;;;;;-2.61;99.36;98776.75;5006709;28;20229;-74
2023/01/18 09:42:20;;;;;;;14.93;8.40;;;;;;;-2.54;99.29;98775.59;5007627;28;20214;-72
2023/01/18 09:44:50;;;;;;;15.20;7.70;;;;;;;-2.49;99.12;98791.88;5002073;28;20207;-73
2023/01/18 09:47:23;;;;;;;10.30;7.47;;;;;;;-2.41;99.67;98786.38;5026833;22;20230;-74
2023/01/18 09:49:55;;;;;;;14.20;7.83;;;;;;;-2.35;99.77;98786.97;5037394;28;20225;-72
2023/01/18 09:52:33;;;;;;;15.77;7.33;;;;;;;-2.28;99.79;98785.81;5043103;28;20292;-73
2023/01/18 09:55:08;;;;;;;13.97;8.03;;;;;;;-2.18;99.59;98781.06;5043369;28;20201;-73
2023/01/18 09:57:59;;;;;;;13.63;7.60;;;;;;;-2.10;99.96;98778.97;5046739;28;20229;-73
2023/01/18 10:00:29;;;;;;;10.30;6.77;;;;;;;-2.03;99.55;98782.19;5045129;28;20240;-72
2023/01/18 10:03:00;;;;;;;15.13;8.53;;;;;;;-1.98;99.88;98773.25;5043102;28;20671;-73
2023/01/18 10:05:31;;;;;;;12.03;7.77;;;;;;;-1.90;100.00;98781.59;5037521;28;20710;-73
2023/01/18 10:08:03;;;;;;;13.20;8.07;;;;;;;-1.84;100.00;98791.78;5043434;28;20218;-72
2023/01/18 10:10:34;;;;;;;13.90;8.07;;;;;;;-1.77;100.00;98789.72;5042429;28;20201;-72
2023/01/18 10:13:13;;;;;;;14.50;8.87;;;;;;;-1.70;100.00;98788.56;5040271;28;20234;-72
2023/01/18 10:15:41;;;;;;;15.03;8.97;;;;;;;-1.63;100.00;98794.38;5043492;28;20202;-72
2023/01/18 10:18:10;;;;;;;13.70;8.53;;;;;;;-1.57;100.00;98796.69;5033697;28;20229;-72
2023/01/18 10:20:44;;;;;;;17.70;10.40;;;;;;;-1.51;100.00;98794.69;5042972;28;21978;-71
2023/01/18 10:23:16;;;;;;;17.47;10.60;;;;;;;-1.45;100.00;98797.03;5038316;28;20213;-72
2023/01/18 10:25:47;;;;;;;21.97;10.83;;;;;;;-1.38;100.00;98799.34;5037002;28;20209;-72
2023/01/18 10:28:25;;;;;;;22.83;11.40;;;;;;;-1.32;100.00;98788.66;5043020;28;20585;-72
2023/01/18 10:31:11;;;;;;;15.97;9.40;;;;;;;-1.25;100.00;98800.50;5037077;28;20198;-72
2023/01/18 10:33:41;;;;;;;16.03;9.60;;;;;;;-1.19;100.00;98802.84;5037131;28;20623;-72
2023/01/18 10:36:13;;;;;;;15.40;8.13;;;;;;;-1.13;100.00;98802.56;5040209;28;20201;-72
2023/01/18 10:38:41;;;;;;;12.53;7.33;;;;;;;-1.07;99.65;98797.03;5039826;28;20738;-72
2023/01/18 10:41:17;;;;;;;14.03;7.70;;;;;;;-1.02;99.49;98802.91;5040435;28;20221;-72
2023/01/18 10:43:43;;;;;;;13.20;8.63;;;;;;;-0.93;98.98;98805.13;5042229;28;20198;-72
2023/01/18 10:46:14;;;;;;;10.73;7.13;;;;;;;-0.87;98.53;98807.44;5038599;28;20214;-71
2023/01/18 10:48:45;;;;;;;12.33;7.57;;;;;;;-0.79;98.01;98809.69;5043006;28;21448;-72
2023/01/18 10:51:25;;;;;;;14.30;8.07;;;;;;;-0.72;97.93;98809.31;5037584;28;20213;-72
2023/01/18 10:53:52;;;;;;;11.80;6.97;;;;;;;-0.65;97.09;98806.44;5037605;28;20216;-72
2023/01/18 10:56:23;;;;;;;14.17;7.73;;;;;;;-0.58;96.90;98807.84;5038554;28;20213;-72
2023/01/18 10:58:54;;;;;;;12.23;7.87;;;;;;;-0.50;96.08;98808.31;5038606;28;20685;-72
2023/01/18 11:01:23;;;;;;;12.60;8.73;;;;;;;-0.44;95.51;98810.66;5039906;28;20232;-72
2023/01/18 11:03:54;;;;;;;14.97;8.10;;;;;;;-0.40;95.28;98812.19;5041509;28;20213;-72
2023/01/18 11:06:23;;;;;;;12.13;8.00;;;;;;;-0.34;94.60;98814.50;5040566;28;20221;-72
2023/01/18 11:08:50;;;;;;;14.50;9.47;;;;;;;-0.28;94.38;98821.22;5044935;28;20228;-72
2023/01/18 11:12:32;;;;;;;14.37;8.30;;;;;;;-0.25;93.85;98819.31;5041864;28;20229;-72
2023/01/18 11:14:28;;;;;;;12.23;8.03;;;;;;;-0.19;93.16;98820.78;5037237;28;20198;-72
2023/01/18 11:16:59;;;;;;;14.80;8.27;;;;;;;-0.18;92.44;98823.28;5037321;28;20342;-72
2023/01/18 11:19:27;;;;;;;17.30;8.00;;;;;;;-0.15;92.09;98815.31;5038828;28;20212;-72
2023/01/18 11:21:54;;;;;;;13.07;7.60;;;;;;;-0.13;91.54;98821.31;5038430;28;20234;-71
2023/01/18 11:24:24;;;;;;;12.20;7.83;;;;;;;-0.12;91.29;98817.78;5042981;28;20209;-72
2023/01/18 11:26:55;;;;;;;13.00;8.07;;;;;;;-0.08;90.73;98821.09;5043431;28;20225;-72
2023/01/18 11:29:24;;;;;;;9.47;6.97;;;;;;;-0.06;90.37;98819.25;5039334;28;20210;-72
2023/01/18 11:31:51;;;;;;;13.37;7.43;;;;;;;-0.05;90.10;98813.94;5036581;28;20236;-72
2023/01/18 11:34:26;;;;;;;10.47;7.53;;;;;;;-0.03;89.48;98825.19;5039426;28;20222;-73
2023/01/18 11:36:55;;;;;;;10.17;6.53;;;;;;;0.00;88.82;98818.97;5034490;28;20206;-72
2023/01/18 11:39:31;;;;;;;9.10;6.90;;;;;;;0.04;88.83;98825.72;5041162;28;20206;-72
2023/01/18 11:42:20;;;;;;;9.73;7.03;;;;;;;0.05;88.05;98824.78;5038544;28;20205;-73
2023/01/18 11:44:57;;;;;;;10.93;6.60;;;;;;;0.08;88.04;98827.25;5036320;28;20308;-72
2023/01/18 11:47:30;;;;;;;9.87;6.57;;;;;;;0.12;87.70;98830.56;5040080;28;20555;-72
2023/01/18 11:50:03;;;;;;;13.07;8.47;;;;;;;0.14;87.41;98829.59;5038103;28;20319;-72
2023/01/18 11:52:42;;;;;;;13.43;7.87;;;;;;;0.17;87.30;98841.66;5037974;28;20208;-72
2023/01/18 11:55:22;;;;;;;12.43;8.93;;;;;;;0.20;87.04;98834.50;5038628;28;20696;-71
2023/01/18 11:57:49;;;;;;;11.63;7.40;;;;;;;0.22;86.42;98835.25;5036614;28;20226;-70
2023/01/18 12:00:16;;;;;;;9.77;7.43;;;;;;;0.25;86.31;98834.25;5039467;28;20233;-72
2023/01/18 12:02:57;;;;;;;13.73;8.83;;;;;;;0.28;86.15;98836.72;5039066;28;20213;-72
2023/01/18 12:05:44;;;;;;;13.20;8.30;;;;;;;0.33;85.88;98838.22;5040082;28;20208;-72
2023/01/18 12:08:48;;;;;;;14.57;8.57;;;;;;;0.39;85.64;98839.66;5038615;28;20255;-72
2023/01/18 12:11:26;;;;;;;14.17;8.50;;;;;;;0.45;85.34;98843.72;4994454;28;20698;-71
2023/01/18 12:14:00;;;;;;;23.10;15.47;;;;;;;0.48;85.20;98840.97;5043571;28;20202;-72
2023/01/18 12:16:49;;;;;;;21.90;12.50;;;;;;;0.51;84.76;98840.81;5043558;28;20742;-72
2023/01/18 12:19:35;;;;;;;21.23;12.00;;;;;;;0.53;84.33;98845.06;5041426;28;20231;-71
2023/01/18 12:22:22;;;;;;;22.03;12.70;;;;;;;0.56;84.29;98850.09;5042678;28;20541;-71